sensor_id;sensor_type;location;lat;lon;timestamp;pressure;altitude;pressure_sealevel;temperature;humidity
73106;BME280;61559;50.476;15.588;2022-08-05T00:00:42;97528.54;;;16.93;70.60
73106;BME280;61559;50.476;15.588;2022-08-05T00:03:18;97529.75;;;16.91;70.42
73106;BME280;61559;50.476;15.588;2022-08-05T00:05:50;97530.08;;;16.88;70.60
73106;BME280;61559;50.476;15.588;2022-08-05T00:08:41;97526.38;;;16.85;70.70
73106;BME280;61559;50.476;15.588;2022-08-05T00:11:16;97526.48;;;16.82;70.84
73106;BME280;61559;50.476;15.588;2022-08-05T00:13:58;97529.70;;;16.79;71.11
73106;BME280;61559;50.476;15.588;2022-08-05T00:16:31;97529.62;;;16.78;71.06
73106;BME280;61559;50.476;15.588;2022-08-05T00:19:23;97530.91;;;16.76;70.97
73106;BME280;61559;50.476;15.588;2022-08-05T00:22:12;97530.82;;;16.70;70.92
73106;BME280;61559;50.476;15.588;2022-08-05T00:24:46;97529.77;;;16.66;71.15
73106;BME280;61559;50.476;15.588;2022-08-05T00:27:23;97530.12;;;16.62;71.49
73106;BME280;61559;50.476;15.588;2022-08-05T00:30:07;97525.96;;;16.59;71.62
73106;BME280;61559;50.476;15.588;2022-08-05T00:32:41;97520.84;;;16.54;71.67
73106;BME280;61559;50.476;15.588;2022-08-05T00:35:16;97523.38;;;16.52;71.75
73106;BME280;61559;50.476;15.588;2022-08-05T00:37:49;97524.96;;;16.49;71.77
73106;BME280;61559;50.476;15.588;2022-08-05T00:40:24;97522.70;;;16.45;71.92
73106;BME280;61559;50.476;15.588;2022-08-05T00:43:00;97518.15;;;16.40;71.73
73106;BME280;61559;50.476;15.588;2022-08-05T00:45:36;97519.67;;;16.38;71.70
73106;BME280;61559;50.476;15.588;2022-08-05T00:48:14;97516.59;;;16.36;71.66
73106;BME280;61559;50.476;15.588;2022-08-05T00:50:47;97515.30;;;16.34;71.69
73106;BME280;61559;50.476;15.588;2022-08-05T00:53:21;97517.71;;;16.33;71.55
73106;BME280;61559;50.476;15.588;2022-08-05T00:56:13;97517.23;;;16.30;71.50
73106;BME280;61559;50.476;15.588;2022-08-05T00:58:46;97519.37;;;16.26;71.62
73106;BME280;61559;50.476;15.588;2022-08-05T01:01:17;97516.14;;;16.24;71.87
73106;BME280;61559;50.476;15.588;2022-08-05T01:04:08;97514.38;;;16.21;71.96
73106;BME280;61559;50.476;15.588;2022-08-05T01:06:44;97513.54;;;16.21;71.96
73106;BME280;61559;50.476;15.588;2022-08-05T01:09:20;97510.45;;;16.18;72.04
73106;BME280;61559;50.476;15.588;2022-08-05T01:11:54;97510.31;;;16.15;72.15
73106;BME280;61559;50.476;15.588;2022-08-05T01:14:46;97506.09;;;16.11;72.24
73106;BME280;61559;50.476;15.588;2022-08-05T01:17:22;97502.11;;;16.09;72.28
73106;BME280;61559;50.476;15.588;2022-08-05T01:20:12;97498.50;;;16.03;72.32
73106;BME280;61559;50.476;15.588;2022-08-05T01:23:06;97497.02;;;16.03;72.00
73106;BME280;61559;50.476;15.588;2022-08-05T01:25:56;97498.00;;;16.00;72.30
73106;BME280;61559;50.476;15.588;2022-08-05T01:28:37;97496.45;;;15.97;72.21
73106;BME280;61559;50.476;15.588;2022-08-05T01:31:16;97498.02;;;15.94;72.26
73106;BME280;61559;50.476;15.588;2022-08-05T01:33:53;97496.70;;;15.91;72.20
73106;BME280;61559;50.476;15.588;2022-08-05T01:36:37;97497.77;;;15.86;72.19
73106;BME280;61559;50.476;15.588;2022-08-05T01:39:16;97497.80;;;15.83;72.48
73106;BME280;61559;50.476;15.588;2022-08-05T01:42:12;97494.30;;;15.79;72.63
73106;BME280;61559;50.476;15.588;2022-08-05T01:44:44;97492.40;;;15.78;72.54
73106;BME280;61559;50.476;15.588;2022-08-05T01:47:24;97488.84;;;15.73;72.54
73106;BME280;61559;50.476;15.588;2022-08-05T01:50:11;97482.48;;;15.67;72.82
73106;BME280;61559;50.476;15.588;2022-08-05T01:52:46;97483.77;;;15.65;72.99
73106;BME280;61559;50.476;15.588;2022-08-05T01:55:21;97482.54;;;15.63;73.01
73106;BME280;61559;50.476;15.588;2022-08-05T01:57:54;97480.02;;;15.59;72.98
73106;BME280;61559;50.476;15.588;2022-08-05T02:00:49;97475.70;;;15.57;73.20
73106;BME280;61559;50.476;15.588;2022-08-05T02:03:24;97476.94;;;15.54;72.95
73106;BME280;61559;50.476;15.588;2022-08-05T02:06:04;97479.69;;;15.51;72.91
73106;BME280;61559;50.476;15.588;2022-08-05T02:08:56;97479.56;;;15.49;72.81
73106;BME280;61559;50.476;15.588;2022-08-05T02:11:36;97478.63;;;15.47;72.86
73106;BME280;61559;50.476;15.588;2022-08-05T02:14:19;97477.71;;;15.46;72.89
73106;BME280;61559;50.476;15.588;2022-08-05T02:16:54;97477.39;;;15.45;73.01
73106;BME280;61559;50.476;15.588;2022-08-05T02:19:32;97475.20;;;15.43;73.11
73106;BME280;61559;50.476;15.588;2022-08-05T02:22:18;97474.74;;;15.38;73.07
73106;BME280;61559;50.476;15.588;2022-08-05T02:25:00;97477.73;;;15.36;73.00
73106;BME280;61559;50.476;15.588;2022-08-05T02:27:35;97479.34;;;15.35;73.01
73106;BME280;61559;50.476;15.588;2022-08-05T02:30:31;97472.65;;;15.31;72.93
73106;BME280;61559;50.476;15.588;2022-08-05T02:33:08;97472.91;;;15.29;73.27
73106;BME280;61559;50.476;15.588;2022-08-05T02:35:42;97476.50;;;15.28;73.42
73106;BME280;61559;50.476;15.588;2022-08-05T02:38:30;97474.56;;;15.24;73.26
73106;BME280;61559;50.476;15.588;2022-08-05T02:41:06;97472.74;;;15.19;73.28
73106;BME280;61559;50.476;15.588;2022-08-05T02:43:47;97474.96;;;15.16;73.41
73106;BME280;61559;50.476;15.588;2022-08-05T02:46:35;97474.92;;;15.14;73.30
73106;BME280;61559;50.476;15.588;2022-08-05T02:49:31;97477.63;;;15.08;73.28
73106;BME280;61559;50.476;15.588;2022-08-05T02:52:06;97475.41;;;15.06;73.50
73106;BME280;61559;50.476;15.588;2022-08-05T02:54:38;97473.61;;;15.01;73.57
73106;BME280;61559;50.476;15.588;2022-08-05T02:57:20;97467.17;;;14.99;73.83
73106;BME280;61559;50.476;15.588;2022-08-05T03:00:13;97469.26;;;14.96;73.76
73106;BME280;61559;50.476;15.588;2022-08-05T03:02:45;97464.15;;;14.94;73.75
73106;BME280;61559;50.476;15.588;2022-08-05T03:05:19;97463.77;;;14.93;73.77
73106;BME280;61559;50.476;15.588;2022-08-05T03:08:11;97459.80;;;14.91;74.05
73106;BME280;61559;50.476;15.588;2022-08-05T03:10:45;97459.54;;;14.90;74.21
73106;BME280;61559;50.476;15.588;2022-08-05T03:13:39;97456.83;;;14.85;74.03
73106;BME280;61559;50.476;15.588;2022-08-05T03:16:30;97456.00;;;14.81;74.09
73106;BME280;61559;50.476;15.588;2022-08-05T03:19:04;97455.97;;;14.80;74.21
73106;BME280;61559;50.476;15.588;2022-08-05T03:21:55;97450.54;;;14.79;73.93
73106;BME280;61559;50.476;15.588;2022-08-05T03:24:26;97453.89;;;14.77;73.94
73106;BME280;61559;50.476;15.588;2022-08-05T03:27:00;97446.42;;;14.73;74.03
73106;BME280;61559;50.476;15.588;2022-08-05T03:29:31;97447.00;;;14.69;74.02
73106;BME280;61559;50.476;15.588;2022-08-05T03:32:22;97443.35;;;14.68;74.06
73106;BME280;61559;50.476;15.588;2022-08-05T03:35:00;97434.89;;;14.67;74.09
73106;BME280;61559;50.476;15.588;2022-08-05T03:37:34;97434.54;;;14.68;74.10
73106;BME280;61559;50.476;15.588;2022-08-05T03:40:15;97440.58;;;14.67;74.00
73106;BME280;61559;50.476;15.588;2022-08-05T03:43:00;97441.82;;;14.66;74.01
73106;BME280;61559;50.476;15.588;2022-08-05T03:45:52;97441.60;;;14.63;74.13
73106;BME280;61559;50.476;15.588;2022-08-05T03:48:28;97436.05;;;14.64;74.26
73106;BME280;61559;50.476;15.588;2022-08-05T03:51:10;97439.52;;;14.66;74.18
73106;BME280;61559;50.476;15.588;2022-08-05T03:54:05;97439.30;;;14.66;74.20
73106;BME280;61559;50.476;15.588;2022-08-05T03:56:58;97439.14;;;14.66;74.16
73106;BME280;61559;50.476;15.588;2022-08-05T03:59:48;97439.36;;;14.66;74.21
73106;BME280;61559;50.476;15.588;2022-08-05T04:02:27;97439.58;;;14.62;74.16
73106;BME280;61559;50.476;15.588;2022-08-05T04:05:15;97441.66;;;14.66;74.25
73106;BME280;61559;50.476;15.588;2022-08-05T04:07:47;97443.95;;;14.69;74.27
73106;BME280;61559;50.476;15.588;2022-08-05T04:10:27;97442.39;;;14.71;74.28
73106;BME280;61559;50.476;15.588;2022-08-05T04:13:06;97443.69;;;14.74;74.19
73106;BME280;61559;50.476;15.588;2022-08-05T04:15:38;97443.03;;;14.75;74.19
73106;BME280;61559;50.476;15.588;2022-08-05T04:18:29;97445.13;;;14.75;74.21
73106;BME280;61559;50.476;15.588;2022-08-05T04:21:04;97445.27;;;14.75;74.39
73106;BME280;61559;50.476;15.588;2022-08-05T04:23:39;97444.50;;;14.77;74.51
73106;BME280;61559;50.476;15.588;2022-08-05T04:26:30;97445.16;;;14.81;74.42
73106;BME280;61559;50.476;15.588;2022-08-05T04:29:02;97445.52;;;15.01;74.11
73106;BME280;61559;50.476;15.588;2022-08-05T04:31:36;97437.05;;;15.23;73.70
73106;BME280;61559;50.476;15.588;2022-08-05T04:34:08;97442.80;;;15.54;73.30
73106;BME280;61559;50.476;15.588;2022-08-05T04:36:59;97441.57;;;15.88;72.60
73106;BME280;61559;50.476;15.588;2022-08-05T04:39:32;97442.17;;;16.04;72.27
73106;BME280;61559;50.476;15.588;2022-08-05T04:42:05;97438.98;;;16.36;71.94
73106;BME280;61559;50.476;15.588;2022-08-05T04:44:37;97442.85;;;16.62;71.43
73106;BME280;61559;50.476;15.588;2022-08-05T04:47:08;97440.92;;;16.67;71.28
73106;BME280;61559;50.476;15.588;2022-08-05T04:49:45;97441.14;;;16.63;71.12
73106;BME280;61559;50.476;15.588;2022-08-05T04:52:35;97440.51;;;16.61;71.07
73106;BME280;61559;50.476;15.588;2022-08-05T04:55:08;97439.57;;;16.59;71.20
73106;BME280;61559;50.476;15.588;2022-08-05T04:57:45;97433.73;;;16.64;71.15
73106;BME280;61559;50.476;15.588;2022-08-05T05:00:22;97433.45;;;17.03;70.45
73106;BME280;61559;50.476;15.588;2022-08-05T05:02:53;97429.94;;;17.39;69.87
73106;BME280;61559;50.476;15.588;2022-08-05T05:05:32;97430.75;;;17.91;68.86
73106;BME280;61559;50.476;15.588;2022-08-05T05:08:22;97436.94;;;18.52;67.97
73106;BME280;61559;50.476;15.588;2022-08-05T05:10:59;97436.73;;;18.97;67.05
73106;BME280;61559;50.476;15.588;2022-08-05T05:13:30;97437.92;;;19.47;66.21
73106;BME280;61559;50.476;15.588;2022-08-05T05:16:12;97437.02;;;19.92;65.15
73106;BME280;61559;50.476;15.588;2022-08-05T05:18:48;97430.44;;;19.96;65.14
73106;BME280;61559;50.476;15.588;2022-08-05T05:21:39;97437.09;;;19.93;65.05
73106;BME280;61559;50.476;15.588;2022-08-05T05:24:15;97438.65;;;19.88;64.93
73106;BME280;61559;50.476;15.588;2022-08-05T05:26:47;97437.36;;;19.82;65.12
73106;BME280;61559;50.476;15.588;2022-08-05T05:29:20;97442.98;;;19.71;65.58
73106;BME280;61559;50.476;15.588;2022-08-05T05:31:51;97443.92;;;19.63;65.77
73106;BME280;61559;50.476;15.588;2022-08-05T05:34:24;97444.85;;;19.54;66.72
73106;BME280;61559;50.476;15.588;2022-08-05T05:36:56;97445.63;;;19.50;66.25
73106;BME280;61559;50.476;15.588;2022-08-05T05:39:27;97446.29;;;19.49;66.66
73106;BME280;61559;50.476;15.588;2022-08-05T05:42:05;97447.40;;;19.47;66.66
73106;BME280;61559;50.476;15.588;2022-08-05T05:44:36;97443.52;;;19.46;66.97
73106;BME280;61559;50.476;15.588;2022-08-05T05:47:14;97445.84;;;19.48;67.82
73106;BME280;61559;50.476;15.588;2022-08-05T05:49:50;97446.23;;;19.51;67.72
73106;BME280;61559;50.476;15.588;2022-08-05T05:52:30;97445.44;;;19.53;67.76
73106;BME280;61559;50.476;15.588;2022-08-05T05:55:08;97445.84;;;19.59;67.99
73106;BME280;61559;50.476;15.588;2022-08-05T05:57:44;97449.30;;;19.64;68.33
73106;BME280;61559;50.476;15.588;2022-08-05T06:00:22;97447.18;;;19.74;68.61
73106;BME280;61559;50.476;15.588;2022-08-05T06:03:02;97447.15;;;19.84;68.53
73106;BME280;61559;50.476;15.588;2022-08-05T06:05:53;97446.65;;;19.92;68.40
73106;BME280;61559;50.476;15.588;2022-08-05T06:08:24;97445.01;;;20.00;68.46
73106;BME280;61559;50.476;15.588;2022-08-05T06:11:01;97447.59;;;20.08;68.20
73106;BME280;61559;50.476;15.588;2022-08-05T06:13:32;97444.08;;;20.15;68.54
73106;BME280;61559;50.476;15.588;2022-08-05T06:16:19;97443.66;;;20.23;68.26
73106;BME280;61559;50.476;15.588;2022-08-05T06:19:00;97437.85;;;20.30;68.43
73106;BME280;61559;50.476;15.588;2022-08-05T06:21:36;97438.11;;;20.40;67.93
73106;BME280;61559;50.476;15.588;2022-08-05T06:24:18;97432.30;;;20.51;68.01
73106;BME280;61559;50.476;15.588;2022-08-05T06:26:55;97433.36;;;20.61;67.92
73106;BME280;61559;50.476;15.588;2022-08-05T06:29:27;97430.67;;;20.71;68.03
73106;BME280;61559;50.476;15.588;2022-08-05T06:32:18;97425.41;;;20.83;68.54
73106;BME280;61559;50.476;15.588;2022-08-05T06:34:55;97424.27;;;20.96;68.38
73106;BME280;61559;50.476;15.588;2022-08-05T06:37:28;97422.69;;;21.09;68.32
73106;BME280;61559;50.476;15.588;2022-08-05T06:40:19;97418.79;;;21.25;67.90
73106;BME280;61559;50.476;15.588;2022-08-05T06:42:56;97420.55;;;21.41;68.14
73106;BME280;61559;50.476;15.588;2022-08-05T06:45:27;97414.30;;;21.55;68.02
73106;BME280;61559;50.476;15.588;2022-08-05T06:48:18;97409.72;;;21.72;67.58
73106;BME280;61559;50.476;15.588;2022-08-05T06:51:09;97411.97;;;21.88;65.19
73106;BME280;61559;50.476;15.588;2022-08-05T06:53:56;97416.69;;;22.05;63.82
73106;BME280;61559;50.476;15.588;2022-08-05T06:56:29;97417.28;;;22.22;63.68
73106;BME280;61559;50.476;15.588;2022-08-05T06:59:04;97416.42;;;22.39;63.91
73106;BME280;61559;50.476;15.588;2022-08-05T07:01:38;97416.90;;;22.54;62.30
73106;BME280;61559;50.476;15.588;2022-08-05T07:04:11;97418.77;;;22.71;59.99
73106;BME280;61559;50.476;15.588;2022-08-05T07:06:42;97420.92;;;22.88;59.98
73106;BME280;61559;50.476;15.588;2022-08-05T07:09:18;97417.38;;;23.07;58.97
73106;BME280;61559;50.476;15.588;2022-08-05T07:11:53;97417.60;;;23.22;58.70
73106;BME280;61559;50.476;15.588;2022-08-05T07:14:29;97414.61;;;23.40;58.99
73106;BME280;61559;50.476;15.588;2022-08-05T07:17:32;97410.83;;;23.58;59.00
73106;BME280;61559;50.476;15.588;2022-08-05T07:20:23;97414.12;;;23.72;58.03
73106;BME280;61559;50.476;15.588;2022-08-05T07:23:07;97414.63;;;23.85;57.42
73106;BME280;61559;50.476;15.588;2022-08-05T07:25:55;97416.00;;;24.01;55.53
73106;BME280;61559;50.476;15.588;2022-08-05T07:28:26;97411.72;;;24.17;56.02
73106;BME280;61559;50.476;15.588;2022-08-05T07:30:57;97406.70;;;24.31;54.39
73106;BME280;61559;50.476;15.588;2022-08-05T07:33:28;97408.48;;;24.49;53.14
73106;BME280;61559;50.476;15.588;2022-08-05T07:36:07;97409.80;;;24.65;52.83
73106;BME280;61559;50.476;15.588;2022-08-05T07:38:50;97403.48;;;24.78;52.10
73106;BME280;61559;50.476;15.588;2022-08-05T07:41:24;97403.70;;;24.94;51.12
73106;BME280;61559;50.476;15.588;2022-08-05T07:44:15;97402.25;;;25.08;50.40
73106;BME280;61559;50.476;15.588;2022-08-05T07:46:48;97398.74;;;25.22;50.01
73106;BME280;61559;50.476;15.588;2022-08-05T07:49:20;97394.70;;;25.32;48.66
73106;BME280;61559;50.476;15.588;2022-08-05T07:51:50;97393.11;;;25.44;48.98
73106;BME280;61559;50.476;15.588;2022-08-05T07:54:24;97388.56;;;25.54;49.03
73106;BME280;61559;50.476;15.588;2022-08-05T07:57:02;97389.48;;;25.61;47.10
73106;BME280;61559;50.476;15.588;2022-08-05T07:59:54;97390.98;;;25.70;46.76
73106;BME280;61559;50.476;15.588;2022-08-05T08:02:28;97391.75;;;25.79;45.46
73106;BME280;61559;50.476;15.588;2022-08-05T08:05:20;97392.59;;;25.90;45.83
73106;BME280;61559;50.476;15.588;2022-08-05T08:07:54;97389.50;;;25.99;45.00
73106;BME280;61559;50.476;15.588;2022-08-05T08:10:29;97388.21;;;26.09;44.54
73106;BME280;61559;50.476;15.588;2022-08-05T08:13:01;97385.33;;;26.21;44.09
73106;BME280;61559;50.476;15.588;2022-08-05T08:15:32;97385.98;;;26.28;43.85
73106;BME280;61559;50.476;15.588;2022-08-05T08:18:24;97383.13;;;26.39;43.64
73106;BME280;61559;50.476;15.588;2022-08-05T08:20:55;97385.08;;;26.49;43.43
73106;BME280;61559;50.476;15.588;2022-08-05T08:23:32;97383.98;;;26.56;42.95
73106;BME280;61559;50.476;15.588;2022-08-05T08:26:23;97382.61;;;26.67;43.57
73106;BME280;61559;50.476;15.588;2022-08-05T08:28:59;97382.77;;;26.72;44.58
73106;BME280;61559;50.476;15.588;2022-08-05T08:31:50;97378.98;;;26.76;44.02
73106;BME280;61559;50.476;15.588;2022-08-05T08:34:23;97383.88;;;26.85;43.55
73106;BME280;61559;50.476;15.588;2022-08-05T08:37:01;97388.23;;;26.95;42.91
73106;BME280;61559;50.476;15.588;2022-08-05T08:39:34;97387.58;;;27.00;42.33
73106;BME280;61559;50.476;15.588;2022-08-05T08:42:08;97390.28;;;27.06;42.18
73106;BME280;61559;50.476;15.588;2022-08-05T08:45:00;97389.27;;;27.13;42.22
73106;BME280;61559;50.476;15.588;2022-08-05T08:47:53;97384.11;;;27.20;42.08
73106;BME280;61559;50.476;15.588;2022-08-05T08:50:47;97384.23;;;27.27;42.26
73106;BME280;61559;50.476;15.588;2022-08-05T08:53:39;97382.70;;;27.36;42.78
73106;BME280;61559;50.476;15.588;2022-08-05T08:56:13;97381.39;;;27.42;40.99
73106;BME280;61559;50.476;15.588;2022-08-05T08:58:47;97380.55;;;27.48;40.96
73106;BME280;61559;50.476;15.588;2022-08-05T09:01:19;97383.58;;;27.53;41.32
73106;BME280;61559;50.476;15.588;2022-08-05T09:03:52;97384.66;;;27.58;42.10
73106;BME280;61559;50.476;15.588;2022-08-05T09:06:29;97381.45;;;27.63;41.00
73106;BME280;61559;50.476;15.588;2022-08-05T09:09:07;97382.64;;;27.71;41.19
73106;BME280;61559;50.476;15.588;2022-08-05T09:11:42;97385.98;;;27.78;38.67
73106;BME280;61559;50.476;15.588;2022-08-05T09:14:24;97388.35;;;27.82;38.73
73106;BME280;61559;50.476;15.588;2022-08-05T09:17:15;97380.59;;;27.84;39.16
73106;BME280;61559;50.476;15.588;2022-08-05T09:20:08;97381.03;;;27.94;39.10
73106;BME280;61559;50.476;15.588;2022-08-05T09:23:09;97375.10;;;28.00;38.99
73106;BME280;61559;50.476;15.588;2022-08-05T09:25:51;97373.86;;;28.08;37.99
73106;BME280;61559;50.476;15.588;2022-08-05T09:28:33;97373.77;;;28.15;38.35
73106;BME280;61559;50.476;15.588;2022-08-05T09:31:07;97371.23;;;28.20;38.00
73106;BME280;61559;50.476;15.588;2022-08-05T09:34:03;97376.69;;;28.28;36.59
73106;BME280;61559;50.476;15.588;2022-08-05T09:36:45;97376.42;;;28.37;36.37
73106;BME280;61559;50.476;15.588;2022-08-05T09:39:27;97382.30;;;28.45;37.07
73106;BME280;61559;50.476;15.588;2022-08-05T09:42:21;97379.39;;;28.55;37.98
73106;BME280;61559;50.476;15.588;2022-08-05T09:44:57;97376.35;;;28.58;38.37
73106;BME280;61559;50.476;15.588;2022-08-05T09:47:46;97376.48;;;28.56;38.76
73106;BME280;61559;50.476;15.588;2022-08-05T09:50:36;97373.21;;;28.60;39.22
73106;BME280;61559;50.476;15.588;2022-08-05T09:53:11;97373.02;;;28.70;37.63
73106;BME280;61559;50.476;15.588;2022-08-05T09:56:03;97368.77;;;28.80;36.00
73106;BME280;61559;50.476;15.588;2022-08-05T09:58:42;97373.80;;;28.91;36.20
73106;BME280;61559;50.476;15.588;2022-08-05T10:01:25;97371.94;;;29.01;35.73
73106;BME280;61559;50.476;15.588;2022-08-05T10:04:00;97366.38;;;29.09;36.15
73106;BME280;61559;50.476;15.588;2022-08-05T10:06:40;97362.59;;;29.13;36.19
73106;BME280;61559;50.476;15.588;2022-08-05T10:09:24;97365.55;;;29.17;35.71
73106;BME280;61559;50.476;15.588;2022-08-05T10:12:09;97364.19;;;29.20;34.64
73106;BME280;61559;50.476;15.588;2022-08-05T10:15:22;97363.88;;;29.24;33.94
73106;BME280;61559;50.476;15.588;2022-08-05T10:18:10;97360.48;;;29.30;35.81
73106;BME280;61559;50.476;15.588;2022-08-05T10:20:49;97360.70;;;29.32;35.35
73106;BME280;61559;50.476;15.588;2022-08-05T10:23:22;97355.97;;;29.37;34.45
73106;BME280;61559;50.476;15.588;2022-08-05T10:26:14;97350.10;;;29.41;33.91
73106;BME280;61559;50.476;15.588;2022-08-05T10:28:46;97345.98;;;29.42;33.46
73106;BME280;61559;50.476;15.588;2022-08-05T10:31:17;97344.80;;;29.43;34.55
73106;BME280;61559;50.476;15.588;2022-08-05T10:34:09;97345.07;;;29.48;34.71
73106;BME280;61559;50.476;15.588;2022-08-05T10:36:42;97347.65;;;29.52;34.45
73106;BME280;61559;50.476;15.588;2022-08-05T10:39:18;97349.98;;;29.54;34.47
73106;BME280;61559;50.476;15.588;2022-08-05T10:42:12;97349.88;;;29.57;33.48
73106;BME280;61559;50.476;15.588;2022-08-05T10:45:02;97349.81;;;29.61;33.60
73106;BME280;61559;50.476;15.588;2022-08-05T10:47:52;97352.46;;;29.67;32.48
73106;BME280;61559;50.476;15.588;2022-08-05T10:53:52;97353.19;;;29.80;32.51
73106;BME280;61559;50.476;15.588;2022-08-05T10:56:25;97354.13;;;29.77;32.32
73106;BME280;61559;50.476;15.588;2022-08-05T10:59:05;97355.52;;;29.80;32.24
73106;BME280;61559;50.476;15.588;2022-08-05T11:02:09;97354.04;;;29.85;31.87
73106;BME280;61559;50.476;15.588;2022-08-05T11:05:05;97347.97;;;29.89;32.53
73106;BME280;61559;50.476;15.588;2022-08-05T11:07:56;97349.23;;;29.92;33.69
73106;BME280;61559;50.476;15.588;2022-08-05T11:10:34;97347.69;;;29.94;32.89
73106;BME280;61559;50.476;15.588;2022-08-05T11:13:40;97344.39;;;30.00;32.49
73106;BME280;61559;50.476;15.588;2022-08-05T11:16:27;97342.09;;;30.09;32.22
73106;BME280;61559;50.476;15.588;2022-08-05T11:19:29;97343.02;;;30.16;32.73
73106;BME280;61559;50.476;15.588;2022-08-05T11:22:38;97345.95;;;30.22;32.45
73106;BME280;61559;50.476;15.588;2022-08-05T11:25:34;97346.23;;;30.23;32.99
73106;BME280;61559;50.476;15.588;2022-08-05T11:28:45;97344.65;;;30.24;32.83
73106;BME280;61559;50.476;15.588;2022-08-05T11:31:27;97341.95;;;30.26;32.22
73106;BME280;61559;50.476;15.588;2022-08-05T11:34:35;97345.11;;;30.28;33.41
73106;BME280;61559;50.476;15.588;2022-08-05T11:37:07;97345.67;;;30.31;33.75
73106;BME280;61559;50.476;15.588;2022-08-05T11:39:58;97345.88;;;30.32;32.53
73106;BME280;61559;50.476;15.588;2022-08-05T11:42:33;97347.02;;;30.33;32.70
73106;BME280;61559;50.476;15.588;2022-08-05T11:45:09;97350.08;;;30.34;31.60
73106;BME280;61559;50.476;15.588;2022-08-05T11:47:55;97346.77;;;30.41;31.53
73106;BME280;61559;50.476;15.588;2022-08-05T11:50:27;97338.92;;;30.44;31.92
73106;BME280;61559;50.476;15.588;2022-08-05T11:53:04;97335.52;;;30.45;32.39
73106;BME280;61559;50.476;15.588;2022-08-05T11:55:38;97335.59;;;30.47;32.40
73106;BME280;61559;50.476;15.588;2022-08-05T11:58:28;97335.23;;;30.50;32.26
73106;BME280;61559;50.476;15.588;2022-08-05T12:01:03;97337.34;;;30.54;32.03
73106;BME280;61559;50.476;15.588;2022-08-05T12:03:44;97332.55;;;30.59;30.93
73106;BME280;61559;50.476;15.588;2022-08-05T12:06:25;97330.95;;;30.66;30.20
73106;BME280;61559;50.476;15.588;2022-08-05T12:08:59;97328.17;;;30.73;30.51
73106;BME280;61559;50.476;15.588;2022-08-05T12:11:31;97326.46;;;30.79;29.83
73106;BME280;61559;50.476;15.588;2022-08-05T12:14:10;97326.34;;;30.84;31.28
73106;BME280;61559;50.476;15.588;2022-08-05T12:16:44;97324.29;;;30.87;30.49
73106;BME280;61559;50.476;15.588;2022-08-05T12:19:16;97325.65;;;30.89;30.35
73106;BME280;61559;50.476;15.588;2022-08-05T12:22:10;97327.11;;;30.94;29.68
73106;BME280;61559;50.476;15.588;2022-08-05T12:24:50;97330.45;;;30.99;29.77
73106;BME280;61559;50.476;15.588;2022-08-05T12:27:23;97330.41;;;31.06;30.12
73106;BME280;61559;50.476;15.588;2022-08-05T12:30:03;97326.09;;;31.09;29.62
73106;BME280;61559;50.476;15.588;2022-08-05T12:32:44;97326.09;;;31.12;29.63
73106;BME280;61559;50.476;15.588;2022-08-05T12:35:19;97320.58;;;31.14;30.41
73106;BME280;61559;50.476;15.588;2022-08-05T12:38:05;97324.36;;;31.18;29.95
73106;BME280;61559;50.476;15.588;2022-08-05T12:40:40;97322.10;;;31.19;29.99
73106;BME280;61559;50.476;15.588;2022-08-05T12:43:12;97322.11;;;31.22;29.98
73106;BME280;61559;50.476;15.588;2022-08-05T12:45:53;97319.91;;;31.21;29.10
73106;BME280;61559;50.476;15.588;2022-08-05T12:48:24;97317.98;;;31.22;29.75
73106;BME280;61559;50.476;15.588;2022-08-05T12:51:12;97321.02;;;31.23;28.82
73106;BME280;61559;50.476;15.588;2022-08-05T12:54:05;97321.35;;;31.25;28.77
73106;BME280;61559;50.476;15.588;2022-08-05T12:56:48;97319.48;;;31.26;29.41
73106;BME280;61559;50.476;15.588;2022-08-05T12:59:22;97320.40;;;31.26;29.94
73106;BME280;61559;50.476;15.588;2022-08-05T13:02:17;97321.02;;;31.27;30.12
73106;BME280;61559;50.476;15.588;2022-08-05T13:04:55;97325.59;;;31.30;29.43
73106;BME280;61559;50.476;15.588;2022-08-05T13:07:27;97322.30;;;31.36;29.61
73106;BME280;61559;50.476;15.588;2022-08-05T13:10:18;97318.14;;;31.39;28.48
73106;BME280;61559;50.476;15.588;2022-08-05T13:12:50;97317.81;;;31.39;29.14
73106;BME280;61559;50.476;15.588;2022-08-05T13:15:31;97318.36;;;31.42;29.46
73106;BME280;61559;50.476;15.588;2022-08-05T13:18:19;97318.19;;;31.43;29.93
73106;BME280;61559;50.476;15.588;2022-08-05T13:20:52;97315.19;;;31.45;30.30
73106;BME280;61559;50.476;15.588;2022-08-05T13:23:24;97316.98;;;31.46;29.16
73106;BME280;61559;50.476;15.588;2022-08-05T13:25:55;97312.09;;;31.51;29.42
73106;BME280;61559;50.476;15.588;2022-08-05T13:28:29;97308.05;;;31.55;29.81
73106;BME280;61559;50.476;15.588;2022-08-05T13:31:01;97296.70;;;31.54;31.10
73106;BME280;61559;50.476;15.588;2022-08-05T13:33:42;97297.90;;;31.49;31.26
73106;BME280;61559;50.476;15.588;2022-08-05T13:36:34;97293.23;;;31.53;29.20
73106;BME280;61559;50.476;15.588;2022-08-05T13:39:06;97295.08;;;31.59;29.51
73106;BME280;61559;50.476;15.588;2022-08-05T13:41:57;97297.55;;;31.61;29.49
73106;BME280;61559;50.476;15.588;2022-08-05T13:44:28;97294.81;;;31.65;29.30
73106;BME280;61559;50.476;15.588;2022-08-05T13:46:59;97294.92;;;31.73;30.02
73106;BME280;61559;50.476;15.588;2022-08-05T13:49:37;97300.31;;;31.78;28.43
73106;BME280;61559;50.476;15.588;2022-08-05T13:52:17;97298.67;;;31.79;29.32
73106;BME280;61559;50.476;15.588;2022-08-05T13:54:59;97297.70;;;31.80;30.34
73106;BME280;61559;50.476;15.588;2022-08-05T13:57:37;97293.33;;;31.83;29.14
73106;BME280;61559;50.476;15.588;2022-08-05T14:00:21;97290.41;;;31.84;29.19
73106;BME280;61559;50.476;15.588;2022-08-05T14:02:56;97283.61;;;31.85;29.87